createdAt,value
2019-02-25T00:00:38.124Z,8.53
2019-02-25T00:02:24.036Z,7.45
2019-02-25T00:03:56.189Z,9.20
2019-02-25T00:05:28.303Z,8.93
2019-02-25T00:07:00.588Z,8.28
2019-02-25T00:08:32.896Z,7.08
2019-02-25T00:10:05.816Z,9.08
2019-02-25T00:11:38.117Z,8.45
2019-02-25T00:13:10.399Z,7.20
2019-02-25T00:14:42.727Z,7.33
2019-02-25T00:16:14.910Z,6.62
2019-02-25T00:17:47.209Z,8.68
2019-02-25T00:19:19.492Z,8.78
2019-02-25T00:20:51.662Z,10.30
2019-02-25T00:22:23.997Z,8.58
2019-02-25T00:23:56.121Z,7.97
2019-02-25T00:25:28.261Z,9.03
2019-02-25T00:27:00.617Z,8.85
2019-02-25T00:28:32.913Z,8.50
2019-02-25T00:30:05.330Z,10.23
2019-02-25T00:31:37.514Z,7.65
2019-02-25T00:33:09.836Z,8.05
2019-02-25T00:34:42.166Z,10.93
2019-02-25T00:36:14.537Z,10.10
2019-02-25T00:37:46.812Z,8.63
2019-02-25T00:39:19.061Z,9.15
2019-02-25T00:40:51.195Z,9.95
2019-02-25T00:42:23.478Z,8.50
2019-02-25T00:43:55.644Z,9.10
2019-02-25T00:45:27.948Z,8.45
2019-02-25T00:47:00.197Z,8.30
2019-02-25T00:48:32.481Z,12.00
2019-02-25T00:50:07.004Z,10.25
2019-02-25T00:51:39.114Z,9.48
2019-02-25T00:53:11.902Z,11.00
2019-02-25T00:54:44.202Z,10.98
2019-02-25T00:56:16.339Z,10.25
2019-02-25T00:57:48.600Z,9.98
2019-02-25T00:59:20.891Z,11.70
2019-02-25T01:00:53.188Z,10.38
2019-02-25T01:02:25.464Z,11.00
2019-02-25T01:03:57.710Z,11.03
2019-02-25T01:05:30.007Z,10.60
2019-02-25T01:07:02.520Z,11.63
2019-02-25T01:08:34.857Z,14.03
2019-02-25T01:10:07.848Z,11.90
2019-02-25T01:11:40.151Z,12.50
2019-02-25T01:13:12.429Z,11.75
2019-02-25T01:14:44.729Z,11.30
2019-02-25T01:16:16.832Z,12.10
2019-02-25T01:17:49.088Z,10.98
2019-02-25T01:19:21.313Z,10.60
2019-02-25T01:20:53.643Z,12.53
2019-02-25T01:22:25.814Z,11.22
2019-02-25T01:23:58.001Z,10.95
2019-02-25T01:25:30.289Z,13.20
2019-02-25T01:27:02.659Z,10.55
2019-02-25T01:28:34.976Z,13.08
2019-02-25T01:30:09.066Z,12.05
2019-02-25T01:31:41.372Z,10.80
2019-02-25T01:33:13.747Z,11.63
2019-02-25T01:34:46.008Z,11.20
2019-02-25T01:36:18.281Z,10.35
2019-02-25T01:37:50.549Z,9.63
2019-02-25T01:39:22.726Z,11.70
2019-02-25T01:40:54.978Z,10.43
2019-02-25T01:42:27.270Z,10.58
2019-02-25T01:43:59.720Z,9.83
2019-02-25T01:45:31.969Z,11.55
2019-02-25T01:47:04.214Z,12.43
2019-02-25T01:48:36.549Z,10.75
2019-02-25T01:50:09.100Z,10.15
2019-02-25T01:51:41.413Z,11.68
2019-02-25T01:53:13.650Z,11.00
2019-02-25T01:54:45.834Z,11.12
2019-02-25T01:56:18.096Z,12.30
2019-02-25T01:57:50.396Z,11.93
2019-02-25T01:59:22.544Z,11.33
2019-02-25T02:00:54.813Z,10.88
2019-02-25T02:02:26.933Z,12.37
2019-02-25T02:03:59.331Z,11.22
2019-02-25T02:05:31.629Z,11.25
2019-02-25T02:07:03.889Z,13.03
2019-02-25T02:08:36.187Z,10.78
2019-02-25T02:10:09.675Z,10.98
2019-02-25T02:11:41.807Z,13.83
2019-02-25T02:13:14.602Z,9.85
2019-02-25T02:14:47.095Z,10.30
2019-02-25T02:16:19.355Z,11.48
2019-02-25T02:17:51.655Z,11.50
2019-02-25T02:19:24.046Z,11.88
2019-02-25T02:20:56.305Z,11.03
2019-02-25T02:22:28.582Z,10.38
2019-02-25T02:24:00.972Z,9.28
2019-02-25T02:25:33.272Z,11.85
2019-02-25T02:27:05.614Z,10.28
2019-02-25T02:28:37.876Z,10.03
2019-02-25T02:30:14.796Z,11.08
2019-02-25T02:31:47.180Z,11.57
2019-02-25T02:33:19.513Z,10.58
2019-02-25T02:34:51.852Z,9.90
2019-02-25T02:36:24.164Z,10.40
2019-02-25T02:37:56.258Z,9.20
2019-02-25T02:39:28.593Z,11.38
2019-02-25T02:41:00.843Z,10.63
2019-02-25T02:42:33.289Z,10.53
2019-02-25T02:44:05.561Z,10.25
2019-02-25T02:45:50.273Z,11.93
2019-02-25T02:47:31.757Z,9.43
2019-02-25T02:49:04.269Z,9.95
2019-02-25T02:50:36.613Z,11.78
2019-02-25T02:52:08.774Z,10.93
2019-02-25T02:53:41.056Z,9.70
2019-02-25T02:55:13.264Z,10.78
2019-02-25T02:56:45.520Z,9.03
2019-02-25T02:58:17.764Z,10.13
2019-02-25T02:59:50.062Z,9.83
2019-02-25T03:01:22.279Z,8.53
2019-02-25T03:02:54.578Z,9.45
2019-02-25T03:04:26.881Z,10.05
2019-02-25T03:05:59.065Z,10.25
2019-02-25T03:07:31.320Z,10.60
2019-02-25T03:09:06.458Z,9.50
2019-02-25T03:10:38.762Z,9.13
2019-02-25T03:12:11.029Z,9.98
2019-02-25T03:13:43.152Z,12.68
2019-02-25T03:15:17.507Z,9.58
2019-02-25T03:16:49.878Z,9.68
2019-02-25T03:18:22.117Z,10.48
2019-02-25T03:19:54.521Z,13.05
2019-02-25T03:21:26.633Z,10.82
2019-02-25T03:22:58.915Z,9.28
2019-02-25T03:24:31.235Z,9.93
2019-02-25T03:26:03.561Z,10.10
2019-02-25T03:27:35.769Z,9.65
2019-02-25T03:29:08.114Z,10.80
2019-02-25T03:30:40.415Z,9.05
2019-02-25T03:32:12.782Z,8.80
2019-02-25T03:33:45.125Z,9.30
2019-02-25T03:35:17.490Z,9.73
2019-02-25T03:36:49.752Z,8.68
2019-02-25T03:38:21.984Z,9.05
2019-02-25T03:39:54.220Z,9.43
2019-02-25T03:41:26.527Z,10.18
2019-02-25T03:42:58.702Z,9.73
2019-02-25T03:44:31.021Z,10.82
2019-02-25T03:46:03.381Z,8.88
2019-02-25T03:47:35.639Z,9.43
2019-02-25T03:49:07.926Z,11.43
2019-02-25T03:50:40.119Z,9.75
2019-02-25T03:52:12.282Z,9.40
2019-02-25T03:53:44.509Z,9.20
2019-02-25T03:55:16.975Z,9.70
2019-02-25T03:56:49.255Z,8.35
2019-02-25T03:58:21.509Z,9.98
2019-02-25T03:59:53.905Z,8.75
2019-02-25T04:01:26.230Z,10.50
2019-02-25T04:02:58.496Z,8.10
2019-02-25T04:04:30.829Z,9.45
2019-02-25T04:06:03.115Z,10.28
2019-02-25T04:07:35.621Z,8.73
2019-02-25T04:09:07.851Z,9.78
2019-02-25T04:10:40.129Z,10.43
2019-02-25T04:12:12.433Z,11.20
2019-02-25T04:13:44.671Z,8.83
2019-02-25T04:15:20.287Z,7.97
2019-02-25T04:16:52.429Z,9.08
2019-02-25T04:18:24.677Z,9.35
2019-02-25T04:19:56.982Z,9.58
2019-02-25T04:21:29.270Z,9.63
2019-02-25T04:23:01.507Z,8.85
2019-02-25T04:24:33.752Z,9.40
2019-02-25T04:26:06.050Z,10.80
2019-02-25T04:27:38.344Z,10.03
2019-02-25T04:29:10.581Z,10.10
2019-02-25T04:30:42.943Z,10.43
2019-02-25T04:32:15.209Z,10.08
2019-02-25T04:33:47.374Z,9.13
2019-02-25T04:35:19.683Z,9.38
2019-02-25T04:36:51.992Z,9.25
2019-02-25T04:38:24.071Z,10.55
2019-02-25T04:39:56.330Z,10.50
2019-02-25T04:41:28.472Z,8.98
2019-02-25T04:43:00.743Z,11.45
2019-02-25T04:44:33.080Z,9.48
2019-02-25T04:46:05.355Z,9.68
2019-02-25T04:47:37.601Z,11.28
2019-02-25T04:49:09.896Z,9.83
2019-02-25T04:50:42.176Z,9.15
2019-02-25T04:52:14.462Z,12.33
2019-02-25T04:53:46.733Z,9.30
2019-02-25T04:55:18.867Z,8.55
2019-02-25T04:56:51.144Z,10.28
2019-02-25T04:58:23.454Z,9.85
2019-02-25T04:59:55.590Z,10.23
2019-02-25T05:01:27.841Z,8.25
2019-02-25T05:03:00.062Z,10.75
2019-02-25T05:04:32.256Z,10.95
2019-02-25T05:06:04.562Z,9.18
2019-02-25T05:07:36.816Z,10.13
2019-02-25T05:09:09.085Z,9.75
2019-02-25T05:10:41.350Z,11.30
2019-02-25T05:12:13.476Z,11.20
2019-02-25T05:13:45.641Z,10.10
2019-02-25T05:15:19.303Z,11.18
2019-02-25T05:16:51.511Z,11.10
2019-02-25T05:18:23.885Z,9.35
2019-02-25T05:19:56.070Z,10.88
2019-02-25T05:21:28.381Z,10.63
2019-02-25T05:23:00.516Z,10.08
2019-02-25T05:24:32.818Z,10.80
2019-02-25T05:26:05.067Z,11.75
2019-02-25T05:27:37.338Z,11.55
2019-02-25T05:29:09.477Z,9.35
2019-02-25T05:30:41.796Z,9.75
2019-02-25T05:32:14.081Z,11.68
2019-02-25T05:33:46.379Z,11.05
2019-02-25T05:35:18.540Z,11.28
2019-02-25T05:36:50.681Z,12.37
2019-02-25T05:38:22.903Z,10.60
2019-02-25T05:39:55.235Z,9.20
2019-02-25T05:41:27.360Z,9.08
2019-02-25T05:42:59.555Z,10.58
2019-02-25T05:44:31.712Z,10.03
2019-02-25T05:46:03.925Z,8.78
2019-02-25T05:47:36.165Z,9.40
2019-02-25T05:49:08.567Z,11.05
2019-02-25T05:50:40.897Z,10.70
2019-02-25T05:52:13.111Z,12.15
2019-02-25T05:53:45.405Z,10.55
2019-02-25T05:55:17.648Z,12.25
2019-02-25T05:56:49.905Z,9.28
2019-02-25T05:58:22.273Z,12.10
2019-02-25T05:59:54.588Z,10.48
2019-02-25T06:01:26.852Z,10.43
2019-02-25T06:02:59.044Z,12.20
2019-02-25T06:04:31.340Z,9.88
2019-02-25T06:06:03.668Z,11.68
2019-02-25T06:07:35.922Z,9.63
2019-02-25T06:09:08.167Z,10.98
2019-02-25T06:10:40.493Z,11.00
2019-02-25T06:12:12.851Z,12.40
2019-02-25T06:13:45.146Z,14.80
2019-02-25T06:15:17.515Z,11.57
2019-02-25T06:16:49.620Z,10.95
2019-02-25T06:18:21.878Z,12.55
2019-02-25T06:19:54.179Z,11.75
2019-02-25T06:21:26.690Z,10.35
2019-02-25T06:22:59.025Z,11.30
2019-02-25T06:24:32.907Z,10.43
2019-02-25T06:26:05.209Z,11.08
2019-02-25T06:27:37.472Z,11.30
2019-02-25T06:29:09.809Z,13.88
2019-02-25T06:30:42.045Z,11.88
2019-02-25T06:32:14.384Z,13.30
2019-02-25T06:33:47.558Z,13.72
2019-02-25T06:35:19.938Z,12.43
2019-02-25T06:36:52.223Z,13.55
2019-02-25T06:38:24.522Z,12.10
2019-02-25T06:39:56.686Z,16.27
2019-02-25T06:41:28.929Z,13.15
2019-02-25T06:43:01.177Z,12.35
2019-02-25T06:44:33.431Z,18.45
2019-02-25T06:46:05.693Z,15.13
2019-02-25T06:47:38.009Z,12.43
2019-02-25T06:49:10.386Z,10.93
2019-02-25T06:50:42.618Z,10.90
2019-02-25T06:52:14.901Z,14.20
2019-02-25T06:53:47.164Z,12.35
2019-02-25T06:55:19.288Z,12.07
2019-02-25T06:56:51.529Z,18.25
2019-02-25T06:58:23.818Z,15.10
2019-02-25T06:59:56.068Z,13.80
2019-02-25T07:01:28.289Z,13.30
2019-02-25T07:03:00.546Z,15.03
2019-02-25T07:04:37.839Z,10.78
2019-02-25T07:06:20.319Z,14.40
2019-02-25T07:07:55.748Z,14.05
2019-02-25T07:09:53.368Z,13.32
2019-02-25T07:11:43.660Z,14.30
2019-02-25T07:13:24.566Z,16.82
2019-02-25T07:15:03.354Z,16.90
2019-02-25T07:17:15.588Z,17.92
2019-02-25T07:19:03.286Z,15.08
2019-02-25T07:21:03.792Z,14.55
2019-02-25T07:23:10.657Z,15.18
2019-02-25T07:24:52.814Z,14.38
2019-02-25T07:26:59.897Z,13.88
2019-02-25T07:28:46.656Z,13.60
2019-02-25T07:30:31.805Z,14.93
2019-02-25T07:32:23.409Z,15.55
2019-02-25T07:34:13.336Z,11.55
2019-02-25T07:35:55.214Z,14.05
2019-02-25T07:37:51.649Z,13.20
2019-02-25T07:39:58.803Z,16.57
2019-02-25T07:42:05.673Z,11.33
2019-02-25T07:43:47.080Z,14.28
2019-02-25T07:45:28.647Z,12.50
2019-02-25T07:47:10.400Z,14.28
2019-02-25T07:49:02.335Z,13.43
2019-02-25T07:51:02.819Z,15.45
2019-02-25T07:53:12.705Z,11.73
2019-02-25T07:55:10.368Z,15.70
2019-02-25T07:57:04.977Z,13.70
2019-02-25T07:58:44.478Z,18.50
2019-02-25T08:00:36.270Z,14.00
2019-02-25T08:02:15.433Z,13.38
2019-02-25T08:04:07.246Z,12.98
2019-02-25T08:05:54.973Z,12.10
2019-02-25T08:07:45.325Z,12.55
2019-02-25T08:09:37.111Z,12.68
2019-02-25T08:11:37.539Z,12.78
2019-02-25T08:13:44.699Z,12.15
2019-02-25T08:15:31.678Z,12.68
2019-02-25T08:17:11.245Z,12.75
2019-02-25T08:19:05.609Z,12.65
2019-02-25T08:20:56.006Z,14.00
2019-02-25T08:22:47.833Z,12.13
2019-02-25T08:24:42.680Z,11.83
2019-02-25T08:26:33.183Z,10.70
2019-02-25T08:28:32.564Z,11.25
2019-02-25T08:30:33.799Z,10.32
2019-02-25T08:32:40.725Z,10.72
2019-02-25T08:34:38.448Z,10.18
2019-02-25T08:37:20.342Z,10.10
2019-02-25T08:39:11.101Z,10.05
2019-02-25T08:41:15.682Z,9.65
2019-02-25T08:42:50.417Z,11.40
2019-02-25T08:44:29.241Z,12.70
2019-02-25T08:46:33.073Z,10.08
2019-02-25T08:48:12.359Z,11.90
2019-02-25T08:49:53.415Z,11.68
2019-02-25T08:51:25.693Z,11.12
2019-02-25T08:52:57.940Z,9.50
2019-02-25T08:54:30.205Z,11.00
2019-02-25T08:56:02.486Z,9.65
2019-02-25T08:57:34.753Z,10.50
2019-02-25T08:59:07.222Z,9.33
2019-02-25T09:00:40.579Z,11.03
2019-02-25T09:02:12.853Z,7.85
2019-02-25T09:03:45.135Z,9.90
2019-02-25T09:05:17.394Z,10.48
2019-02-25T09:06:58.750Z,11.45
2019-02-25T09:08:30.889Z,10.08
2019-02-25T09:10:03.436Z,11.35
2019-02-25T09:11:35.759Z,8.88
2019-02-25T09:13:08.022Z,9.43
2019-02-25T09:14:40.265Z,9.73
2019-02-25T09:16:12.515Z,8.30
2019-02-25T09:17:44.265Z,8.35
2019-02-25T09:19:16.542Z,10.23
2019-02-25T09:20:48.968Z,10.38
2019-02-25T09:22:21.247Z,8.30
2019-02-25T09:23:53.422Z,8.50
2019-02-25T09:25:25.748Z,8.65
2019-02-25T09:26:57.905Z,9.28
2019-02-25T09:28:30.069Z,10.40
2019-02-25T09:30:02.452Z,8.65
2019-02-25T09:31:34.769Z,8.35
2019-02-25T09:33:07.063Z,8.35
2019-02-25T09:34:39.323Z,8.60
2019-02-25T09:36:11.574Z,8.78
2019-02-25T09:37:43.853Z,9.13
2019-02-25T09:39:18.066Z,9.63
2019-02-25T09:40:50.313Z,10.13
2019-02-25T09:42:24.293Z,9.65
2019-02-25T09:43:56.413Z,8.15
2019-02-25T09:45:28.575Z,8.03
2019-02-25T09:47:00.881Z,8.53
2019-02-25T09:48:33.170Z,9.75
2019-02-25T09:50:06.547Z,7.85
2019-02-25T09:51:38.825Z,10.65
2019-02-25T09:53:11.098Z,8.65
2019-02-25T09:54:46.067Z,14.40
2019-02-25T09:56:18.392Z,10.95
2019-02-25T09:57:50.698Z,10.95
2019-02-25T09:59:22.984Z,8.53
2019-02-25T10:00:55.097Z,10.85
2019-02-25T10:02:30.221Z,11.45
2019-02-25T10:04:02.462Z,11.43
2019-02-25T10:05:34.721Z,9.70
2019-02-25T10:07:07.023Z,8.93
2019-02-25T10:08:39.304Z,10.38
2019-02-25T10:10:12.440Z,10.72
2019-02-25T10:11:44.699Z,12.33
2019-02-25T10:13:16.959Z,12.78
2019-02-25T10:14:49.665Z,12.68
2019-02-25T10:16:22.404Z,9.18
2019-02-25T10:17:54.630Z,13.62
2019-02-25T10:19:26.785Z,11.70
2019-02-25T10:20:58.991Z,9.40
2019-02-25T10:22:32.804Z,9.08
2019-02-25T10:24:05.075Z,9.68
2019-02-25T10:25:37.208Z,13.25
2019-02-25T10:27:09.491Z,11.88
2019-02-25T10:28:41.778Z,10.25
2019-02-25T10:30:14.011Z,10.20
2019-02-25T10:31:46.295Z,9.90
2019-02-25T10:33:18.547Z,8.95
2019-02-25T10:34:50.803Z,9.73
2019-02-25T10:36:22.997Z,10.98
2019-02-25T10:37:55.350Z,9.75
2019-02-25T10:39:27.631Z,7.35
2019-02-25T10:40:59.924Z,9.08
2019-02-25T10:42:33.466Z,13.18
2019-02-25T10:44:06.879Z,11.28
2019-02-25T10:45:41.162Z,10.82
2019-02-25T10:47:15.626Z,11.00
2019-02-25T10:48:50.731Z,10.58
2019-02-25T10:50:22.909Z,9.33
2019-02-25T10:51:55.207Z,11.97
2019-02-25T10:53:27.542Z,9.55
2019-02-25T10:54:59.808Z,13.53
2019-02-25T10:56:42.240Z,10.28
2019-02-25T10:58:14.444Z,9.23
2019-02-25T10:59:46.691Z,10.58
2019-02-25T11:01:19.979Z,10.82
2019-02-25T11:02:53.562Z,11.60
2019-02-25T11:04:27.137Z,10.53
2019-02-25T11:06:00.810Z,11.12
2019-02-25T11:07:34.929Z,8.58
2019-02-25T11:09:34.862Z,11.73
2019-02-25T11:11:11.609Z,10.32
2019-02-25T11:12:43.895Z,8.28
2019-02-25T11:14:16.194Z,8.30
2019-02-25T11:15:48.600Z,9.18
2019-02-25T11:17:22.412Z,10.60
2019-02-25T11:18:56.561Z,9.03
2019-02-25T11:20:31.745Z,8.90
2019-02-25T11:22:05.557Z,11.55
2019-02-25T11:23:38.679Z,8.68
2019-02-25T11:25:10.914Z,12.45
2019-02-25T11:26:43.341Z,10.35
2019-02-25T11:28:24.847Z,9.60
2019-02-25T11:29:49.821Z,7.75
2019-02-25T11:31:24.551Z,11.33
2019-02-25T11:32:57.951Z,8.80
2019-02-25T11:34:31.605Z,9.38
2019-02-25T11:36:04.609Z,7.47
2019-02-25T11:37:36.865Z,11.43
2019-02-25T11:39:09.610Z,8.93
2019-02-25T11:40:42.045Z,7.77
2019-02-25T11:42:17.673Z,9.30
2019-02-25T11:43:50.494Z,7.12
2019-02-25T11:45:22.748Z,7.97
2019-02-25T11:46:55.739Z,7.87
2019-02-25T11:48:27.955Z,8.33
2019-02-25T11:50:00.308Z,10.58
2019-02-25T11:51:32.786Z,8.78
2019-02-25T11:53:05.215Z,8.67
2019-02-25T11:54:37.537Z,10.50
2019-02-25T11:56:09.805Z,7.93
2019-02-25T11:57:42.122Z,9.03
2019-02-25T11:59:14.456Z,8.17
2019-02-25T12:00:46.731Z,8.13
2019-02-25T12:02:25.177Z,8.20
2019-02-25T12:03:53.258Z,6.60
2019-02-25T12:05:25.587Z,9.97
2019-02-25T12:06:57.855Z,9.23
2019-02-25T12:08:30.156Z,10.73
2019-02-25T12:10:02.727Z,8.33
2019-02-25T12:11:35.029Z,8.23
2019-02-25T12:13:07.317Z,6.07
2019-02-25T12:14:39.622Z,7.37
2019-02-25T12:16:11.930Z,6.10
2019-02-25T12:17:44.324Z,5.53
2019-02-25T12:19:18.118Z,4.90
2019-02-25T12:20:50.741Z,5.43
2019-02-25T12:22:23.035Z,4.67
2019-02-25T12:23:55.346Z,4.80
2019-02-25T12:25:27.633Z,7.47
2019-02-25T12:26:59.928Z,7.33
2019-02-25T12:28:32.197Z,6.70
2019-02-25T12:30:06.892Z,6.20
2019-02-25T12:31:39.144Z,6.73
2019-02-25T12:33:11.297Z,6.13
2019-02-25T12:34:43.400Z,8.40
2019-02-25T12:36:15.714Z,6.60
2019-02-25T12:37:48.113Z,5.40
2019-02-25T12:39:20.665Z,7.00
2019-02-25T12:40:53.170Z,6.93
2019-02-25T12:42:25.343Z,5.03
2019-02-25T12:43:57.607Z,4.90
2019-02-25T12:45:30.165Z,6.93
2019-02-25T12:47:02.451Z,9.43
2019-02-25T12:48:34.759Z,4.92
2019-02-25T12:50:07.960Z,5.87
2019-02-25T12:51:40.322Z,5.87
2019-02-25T12:53:12.576Z,6.27
2019-02-25T12:54:44.866Z,4.87
2019-02-25T12:56:17.111Z,9.63
2019-02-25T12:57:49.343Z,12.13
2019-02-25T12:59:21.647Z,7.73
2019-02-25T13:00:53.902Z,5.83
2019-02-25T13:02:26.195Z,7.07
2019-02-25T13:03:58.436Z,5.97
2019-02-25T13:05:30.742Z,8.93
2019-02-25T13:07:03.065Z,6.20
2019-02-25T13:08:35.364Z,6.30
2019-02-25T13:10:09.274Z,7.77
2019-02-25T13:11:41.614Z,6.27
2019-02-25T13:13:13.984Z,6.10
2019-02-25T13:14:46.147Z,6.00
2019-02-25T13:16:18.398Z,5.83
2019-02-25T13:17:50.697Z,6.77
2019-02-25T13:19:22.932Z,11.13
2019-02-25T13:20:55.205Z,7.90
2019-02-25T13:22:27.480Z,11.63
2019-02-25T13:24:01.906Z,6.47
2019-02-25T13:25:33.852Z,5.50
2019-02-25T13:27:08.009Z,7.33
2019-02-25T13:28:40.237Z,7.07
2019-02-25T13:30:13.517Z,9.28
2019-02-25T13:31:45.762Z,5.90
2019-02-25T13:33:18.095Z,5.23
2019-02-25T13:34:50.456Z,6.87
2019-02-25T13:36:22.809Z,6.97
2019-02-25T13:37:55.201Z,13.33
2019-02-25T13:39:27.543Z,8.13
2019-02-25T13:40:59.896Z,7.92
2019-02-25T13:42:32.343Z,8.88
2019-02-25T13:44:04.693Z,8.35
2019-02-25T13:45:37.111Z,12.75
2019-02-25T13:47:09.369Z,12.90
2019-02-25T13:48:41.755Z,8.30
2019-02-25T13:50:14.275Z,6.50
2019-02-25T13:51:46.654Z,6.97
2019-02-25T13:53:19.001Z,9.93
2019-02-25T13:54:51.425Z,8.00
2019-02-25T13:56:23.862Z,10.70
2019-02-25T13:57:57.667Z,8.40
2019-02-25T13:59:30.397Z,7.70
2019-02-25T14:01:03.473Z,7.40
2019-02-25T14:02:35.851Z,9.20
2019-02-25T14:04:08.261Z,8.08
2019-02-25T14:05:40.615Z,9.28
2019-02-25T14:07:14.281Z,8.43
2019-02-25T14:08:46.662Z,8.30
2019-02-25T14:10:19.404Z,8.63
2019-02-25T14:11:51.802Z,8.13
2019-02-25T14:13:24.167Z,6.72
2019-02-25T14:14:56.531Z,7.15
2019-02-25T14:16:28.939Z,6.72
2019-02-25T14:18:01.295Z,6.12
2019-02-25T14:19:33.712Z,7.85
2019-02-25T14:21:06.102Z,11.50
2019-02-25T14:22:38.515Z,7.20
2019-02-25T14:24:10.886Z,8.70
2019-02-25T14:25:43.231Z,7.85
2019-02-25T14:27:15.455Z,7.58
2019-02-25T14:28:48.712Z,9.08
2019-02-25T14:30:22.024Z,6.60
2019-02-25T14:31:54.436Z,9.90
2019-02-25T14:33:26.861Z,8.83
2019-02-25T14:35:00.532Z,6.50
2019-02-25T14:36:32.938Z,7.10
2019-02-25T14:38:09.657Z,8.58
2019-02-25T14:39:40.896Z,7.60
2019-02-25T14:41:16.144Z,9.28
2019-02-25T14:42:52.026Z,7.45
2019-02-25T14:44:27.115Z,6.25
2019-02-25T14:46:01.095Z,9.53
2019-02-25T14:47:36.820Z,10.98
2019-02-25T14:49:09.753Z,9.70
2019-02-25T14:50:50.576Z,6.05
2019-02-25T14:52:29.271Z,9.15
2019-02-25T14:54:05.978Z,8.25
2019-02-25T14:55:40.677Z,7.67
2019-02-25T14:57:13.104Z,7.55
2019-02-25T14:58:47.670Z,7.92
2019-02-25T15:00:29.017Z,8.03
2019-02-25T15:02:04.045Z,6.87
2019-02-25T15:03:36.754Z,6.62
2019-02-25T15:05:10.521Z,7.60
2019-02-25T15:06:43.567Z,8.20
2019-02-25T15:08:16.072Z,9.78
2019-02-25T15:09:48.534Z,8.45
2019-02-25T15:11:21.051Z,8.30
2019-02-25T15:12:56.542Z,5.40
2019-02-25T15:14:27.832Z,6.53
2019-02-25T15:16:00.356Z,7.05
2019-02-25T15:17:32.909Z,7.28
2019-02-25T15:19:05.441Z,6.80
2019-02-25T15:20:37.845Z,7.08
2019-02-25T15:22:10.440Z,6.62
2019-02-25T15:23:55.409Z,8.95
2019-02-25T15:25:31.180Z,7.83
2019-02-25T15:27:04.371Z,8.00
2019-02-25T15:28:36.865Z,7.75
2019-02-25T15:30:13.570Z,5.85
2019-02-25T15:31:46.309Z,9.10
2019-02-25T15:33:20.276Z,6.87
2019-02-25T15:34:53.354Z,7.40
2019-02-25T15:36:28.968Z,10.68
2019-02-25T15:38:01.553Z,6.58
2019-02-25T15:39:34.048Z,8.78
2019-02-25T15:41:34.275Z,7.58
2019-02-25T15:43:12.580Z,10.50
2019-02-25T15:44:44.545Z,5.87
2019-02-25T15:46:19.587Z,9.08
2019-02-25T15:47:53.035Z,9.33
2019-02-25T15:49:28.063Z,10.05
2019-02-25T15:51:03.447Z,9.33
2019-02-25T15:52:39.898Z,10.93
2019-02-25T15:54:21.800Z,7.87
2019-02-25T15:55:56.948Z,8.28
2019-02-25T15:57:30.623Z,10.38
2019-02-25T15:59:03.039Z,9.80
2019-02-25T16:00:36.689Z,8.93
2019-02-25T16:02:10.590Z,9.23
2019-02-25T16:03:43.451Z,7.78
2019-02-25T16:05:18.764Z,8.78
2019-02-25T16:08:50.404Z,12.73
2019-02-25T16:10:22.935Z,8.70
2019-02-25T16:11:55.263Z,8.25
2019-02-25T16:13:27.846Z,7.05
2019-02-25T16:15:00.311Z,10.38
2019-02-25T16:16:32.721Z,10.38
2019-02-25T16:18:05.123Z,7.47
2019-02-25T16:19:46.430Z,8.70
2019-02-25T16:21:13.246Z,9.95
2019-02-25T16:22:45.689Z,8.58
2019-02-25T16:24:18.714Z,10.25
2019-02-25T16:25:53.155Z,10.15
2019-02-25T16:27:27.290Z,9.38
2019-02-25T16:29:04.039Z,9.30
2019-02-25T16:30:33.848Z,10.82
2019-02-25T16:32:06.138Z,8.83
2019-02-25T16:33:38.850Z,8.88
2019-02-25T16:35:11.269Z,9.18
2019-02-25T16:36:45.207Z,6.80
2019-02-25T16:38:21.099Z,9.10
2019-02-25T16:39:51.799Z,7.70
2019-02-25T16:41:27.338Z,13.05
2019-02-25T16:42:59.761Z,9.03
2019-02-25T16:44:32.389Z,7.35
2019-02-25T16:46:06.441Z,10.82
2019-02-25T16:47:38.856Z,10.90
2019-02-25T16:49:11.238Z,9.40
2019-02-25T16:50:45.846Z,14.78
2019-02-25T16:52:18.413Z,13.65
2019-02-25T16:53:52.376Z,11.60
2019-02-25T16:55:27.353Z,11.33
2019-02-25T16:56:58.887Z,9.95
2019-02-25T16:58:32.057Z,9.50
2019-02-25T17:00:10.146Z,10.40
2019-02-25T17:01:42.525Z,8.10
2019-02-25T17:03:16.127Z,10.58
2019-02-25T17:04:48.536Z,12.40
2019-02-25T17:06:20.936Z,10.70
2019-02-25T17:07:53.280Z,8.83
2019-02-25T17:09:28.343Z,9.25
2019-02-25T17:11:00.662Z,9.00
2019-02-25T17:12:33.040Z,11.88
2019-02-25T17:14:05.355Z,9.13
2019-02-25T17:15:37.781Z,9.48
2019-02-25T17:17:10.062Z,9.78
2019-02-25T17:18:45.853Z,13.05
2019-02-25T17:20:16.468Z,8.28
2019-02-25T17:21:49.073Z,13.45
2019-02-25T17:23:22.907Z,8.53
2019-02-25T17:24:56.485Z,11.93
2019-02-25T17:26:29.831Z,8.35
2019-02-25T17:28:02.212Z,8.75
2019-02-25T17:29:35.880Z,11.45
2019-02-25T17:31:09.091Z,10.55
2019-02-25T17:32:43.963Z,9.88
2019-02-25T17:34:17.000Z,8.88
2019-02-25T17:35:52.115Z,8.58
2019-02-25T17:37:26.628Z,12.53
2019-02-25T17:38:58.957Z,9.43
2019-02-25T17:40:31.373Z,11.18
2019-02-25T17:42:06.319Z,9.10
2019-02-25T17:43:40.684Z,12.25
2019-02-25T17:45:15.003Z,9.63
2019-02-25T17:46:47.371Z,9.13
2019-02-25T17:48:21.236Z,11.25
2019-02-25T17:49:53.775Z,10.25
2019-02-25T17:51:27.041Z,9.65
2019-02-25T17:53:00.928Z,8.73
2019-02-25T17:54:35.527Z,13.13
2019-02-25T17:56:07.779Z,7.70
2019-02-25T17:57:40.062Z,9.95
2019-02-25T17:59:12.421Z,7.85
2019-02-25T18:00:45.144Z,10.15
2019-02-25T18:02:17.536Z,9.50
2019-02-25T18:03:49.960Z,9.10
2019-02-25T18:05:22.311Z,12.78
2019-02-25T18:06:54.692Z,8.45
2019-02-25T18:08:27.935Z,8.13
2019-02-25T18:10:01.696Z,9.25
2019-02-25T18:11:36.842Z,8.63
2019-02-25T18:13:10.886Z,8.75
2019-02-25T18:14:45.161Z,7.50
2019-02-25T18:16:19.013Z,5.12
2019-02-25T18:17:53.065Z,8.30
2019-02-25T18:19:27.096Z,5.58
2019-02-25T18:20:59.691Z,6.80
2019-02-25T18:22:32.595Z,6.65
2019-02-25T18:24:05.394Z,6.53
2019-02-25T18:25:39.758Z,6.55
2019-02-25T18:27:13.090Z,6.95
2019-02-25T18:28:45.890Z,6.87
2019-02-25T18:30:20.284Z,7.42
2019-02-25T18:31:52.860Z,5.67
2019-02-25T18:33:26.878Z,6.55
2019-02-25T18:35:00.529Z,5.90
2019-02-25T18:36:33.287Z,4.70
2019-02-25T18:38:08.952Z,5.47
2019-02-25T18:39:40.129Z,6.72
2019-02-25T18:41:12.930Z,4.90
2019-02-25T18:42:45.432Z,4.03
2019-02-25T18:44:17.685Z,5.25
2019-02-25T18:45:50.082Z,4.55
2019-02-25T18:47:23.458Z,5.37
2019-02-25T18:48:56.555Z,3.35
2019-02-25T18:50:30.768Z,4.50
2019-02-25T18:52:03.450Z,6.67
2019-02-25T18:53:35.848Z,4.30
2019-02-25T18:55:11.171Z,4.83
2019-02-25T18:56:44.632Z,4.83
2019-02-25T18:58:17.416Z,6.75
2019-02-25T18:59:49.622Z,5.55
2019-02-25T19:01:22.010Z,4.67
2019-02-25T19:02:56.201Z,5.78
2019-02-25T19:04:28.769Z,5.87
2019-02-25T19:06:01.205Z,3.87
2019-02-25T19:07:33.881Z,6.17
2019-02-25T19:09:12.260Z,5.03
2019-02-25T19:10:45.640Z,5.12
2019-02-25T19:12:17.657Z,5.70
2019-02-25T19:13:51.674Z,4.87
2019-02-25T19:15:24.267Z,5.40
2019-02-25T19:16:57.692Z,5.50
2019-02-25T19:18:32.103Z,4.72
2019-02-25T19:20:05.705Z,5.70
2019-02-25T19:21:37.949Z,8.83
2019-02-25T19:23:11.752Z,4.40
2019-02-25T19:24:45.048Z,7.42
2019-02-25T19:26:19.702Z,5.70
2019-02-25T19:27:54.348Z,6.92
2019-02-25T19:29:28.165Z,5.17
2019-02-25T19:31:01.146Z,6.35
2019-02-25T19:32:33.523Z,6.15
2019-02-25T19:34:05.808Z,6.35
2019-02-25T19:35:40.641Z,5.28
2019-02-25T19:37:14.368Z,7.97
2019-02-25T19:38:48.512Z,6.35
2019-02-25T19:40:22.551Z,5.87
2019-02-25T19:41:56.359Z,6.60
2019-02-25T19:43:29.085Z,6.58
2019-02-25T19:45:05.297Z,6.08
2019-02-25T19:46:35.612Z,6.65
2019-02-25T19:48:07.959Z,7.65
2019-02-25T19:49:41.305Z,6.25
2019-02-25T19:51:14.378Z,5.80
2019-02-25T19:52:46.819Z,6.12
2019-02-25T19:54:19.093Z,6.62
2019-02-25T19:55:53.665Z,7.65
2019-02-25T19:57:26.233Z,7.05
2019-02-25T19:59:00.771Z,8.55
2019-02-25T20:00:35.782Z,8.93
2019-02-25T20:02:07.982Z,9.15
2019-02-25T20:03:42.484Z,8.50
2019-02-25T20:05:16.552Z,7.95
2019-02-25T20:06:49.456Z,7.05
2019-02-25T20:08:23.066Z,9.43
2019-02-25T20:09:57.762Z,7.97
2019-02-25T20:11:29.536Z,7.62
2019-02-25T20:13:05.732Z,9.48
2019-02-25T20:14:37.326Z,9.43
2019-02-25T20:16:13.383Z,10.85
2019-02-25T20:17:44.634Z,10.98
2019-02-25T20:19:18.010Z,9.80
2019-02-25T20:20:50.218Z,8.25
2019-02-25T20:22:22.474Z,12.90
2019-02-25T20:23:56.001Z,9.68
2019-02-25T20:25:28.761Z,10.20
2019-02-25T20:27:02.441Z,15.85
2019-02-25T20:28:35.291Z,18.85
2019-02-25T20:30:10.096Z,18.60
2019-02-25T20:31:42.385Z,19.10
2019-02-25T20:33:14.671Z,22.80
2019-02-25T20:34:48.428Z,21.10
2019-02-25T20:36:22.089Z,19.67
2019-02-25T20:37:55.761Z,20.12
2019-02-25T20:39:29.353Z,18.87
2019-02-25T20:41:02.570Z,19.73